Terminal Aerodrome Forecast
Issued by NWS

Home | Current Version | Previous Version | Graphics & Text | Print | Product List | Glossary On
Versions: 1 2 3 4 5 6 7 8 9 10 11 12 13 14 15 16 17 18 19 20 21 22 23
000
FTUS43 KICT 282337
TAFCNU
TAF
KCNU 282337Z 0100/0124 12006KT 4SM -SN BR SCT020 OVC040
      TEMPO 0100/0102 2SM -SN BR OVC020
     FM010300 13004KT 5SM BR OVC020
     FM010900 VRB03KT 3SM BR OVC015
      TEMPO 0109/0113 2SM -FZDZ BR
     FM011500 36005KT P6SM SCT020 BKN050=

USA.gov is the U.S. government's official web portal to all federal, state and local government web resources and services.